sensor_id;sensor_type;location;lat;lon;timestamp;P1;durP1;ratioP1;P2;durP2;ratioP2
37051;SDS011;22964;52.272;13.356;2023-02-14T00:01:46;19.10;;;8.88;;
37051;SDS011;22964;52.272;13.356;2023-02-14T00:04:13;17.73;;;9.13;;
37051;SDS011;22964;52.272;13.356;2023-02-14T00:06:40;16.55;;;8.93;;
37051;SDS011;22964;52.272;13.356;2023-02-14T00:09:06;17.90;;;8.70;;
37051;SDS011;22964;52.272;13.356;2023-02-14T00:11:35;17.92;;;8.45;;
37051;SDS011;22964;52.272;13.356;2023-02-14T00:14:02;19.40;;;9.50;;
37051;SDS011;22964;52.272;13.356;2023-02-14T00:16:47;18.20;;;9.23;;
37051;SDS011;22964;52.272;13.356;2023-02-14T00:19:13;19.02;;;9.88;;
37051;SDS011;22964;52.272;13.356;2023-02-14T00:21:42;20.23;;;9.57;;
37051;SDS011;22964;52.272;13.356;2023-02-14T00:24:12;18.73;;;9.15;;
37051;SDS011;22964;52.272;13.356;2023-02-14T00:26:40;20.67;;;9.27;;
37051;SDS011;22964;52.272;13.356;2023-02-14T00:29:07;18.17;;;8.73;;
37051;SDS011;22964;52.272;13.356;2023-02-14T00:31:34;16.73;;;8.45;;
37051;SDS011;22964;52.272;13.356;2023-02-14T00:34:01;17.17;;;9.07;;
37051;SDS011;22964;52.272;13.356;2023-02-14T00:36:27;18.95;;;8.57;;
37051;SDS011;22964;52.272;13.356;2023-02-14T00:38:53;13.40;;;7.47;;
37051;SDS011;22964;52.272;13.356;2023-02-14T00:41:19;12.55;;;6.93;;
37051;SDS011;22964;52.272;13.356;2023-02-14T00:43:48;17.92;;;7.65;;
37051;SDS011;22964;52.272;13.356;2023-02-14T00:46:18;15.57;;;7.82;;
37051;SDS011;22964;52.272;13.356;2023-02-14T00:48:45;12.63;;;7.28;;
37051;SDS011;22964;52.272;13.356;2023-02-14T00:51:11;14.90;;;7.55;;
37051;SDS011;22964;52.272;13.356;2023-02-14T00:53:37;16.10;;;7.35;;
37051;SDS011;22964;52.272;13.356;2023-02-14T00:56:04;12.55;;;6.47;;
37051;SDS011;22964;52.272;13.356;2023-02-14T00:58:30;14.00;;;7.13;;
37051;SDS011;22964;52.272;13.356;2023-02-14T01:00:56;14.57;;;7.38;;
37051;SDS011;22964;52.272;13.356;2023-02-14T01:03:22;15.20;;;7.47;;
37051;SDS011;22964;52.272;13.356;2023-02-14T01:05:50;13.55;;;7.15;;
37051;SDS011;22964;52.272;13.356;2023-02-14T01:08:16;13.57;;;7.10;;
37051;SDS011;22964;52.272;13.356;2023-02-14T01:10:42;16.65;;;8.02;;
37051;SDS011;22964;52.272;13.356;2023-02-14T01:13:08;14.23;;;6.93;;
37051;SDS011;22964;52.272;13.356;2023-02-14T01:15:38;15.38;;;7.68;;
37051;SDS011;22964;52.272;13.356;2023-02-14T01:18:06;15.17;;;7.37;;
37051;SDS011;22964;52.272;13.356;2023-02-14T01:20:32;15.13;;;8.10;;
37051;SDS011;22964;52.272;13.356;2023-02-14T01:22:58;14.38;;;7.20;;
37051;SDS011;22964;52.272;13.356;2023-02-14T01:25:24;16.23;;;7.70;;
37051;SDS011;22964;52.272;13.356;2023-02-14T01:27:50;14.63;;;7.88;;
37051;SDS011;22964;52.272;13.356;2023-02-14T01:30:16;14.95;;;7.07;;
37051;SDS011;22964;52.272;13.356;2023-02-14T01:32:42;12.75;;;6.55;;
37051;SDS011;22964;52.272;13.356;2023-02-14T01:35:09;13.15;;;7.05;;
37051;SDS011;22964;52.272;13.356;2023-02-14T01:37:36;12.88;;;6.53;;
37051;SDS011;22964;52.272;13.356;2023-02-14T01:40:02;15.00;;;7.32;;
37051;SDS011;22964;52.272;13.356;2023-02-14T01:42:29;15.98;;;7.45;;
37051;SDS011;22964;52.272;13.356;2023-02-14T01:47:22;13.95;;;6.88;;
37051;SDS011;22964;52.272;13.356;2023-02-14T01:49:54;16.23;;;7.85;;
37051;SDS011;22964;52.272;13.356;2023-02-14T01:52:26;16.48;;;7.07;;
37051;SDS011;22964;52.272;13.356;2023-02-14T01:55:01;14.20;;;7.10;;
37051;SDS011;22964;52.272;13.356;2023-02-14T01:57:43;14.57;;;7.38;;
37051;SDS011;22964;52.272;13.356;2023-02-14T02:00:31;19.27;;;7.78;;
37051;SDS011;22964;52.272;13.356;2023-02-14T02:03:16;18.25;;;8.10;;
37051;SDS011;22964;52.272;13.356;2023-02-14T02:05:46;16.98;;;8.18;;
37051;SDS011;22964;52.272;13.356;2023-02-14T02:08:15;18.15;;;8.07;;
37051;SDS011;22964;52.272;13.356;2023-02-14T02:10:42;18.70;;;8.88;;
37051;SDS011;22964;52.272;13.356;2023-02-14T02:13:13;20.83;;;9.60;;
37051;SDS011;22964;52.272;13.356;2023-02-14T02:15:47;19.75;;;9.23;;
37051;SDS011;22964;52.272;13.356;2023-02-14T02:18:19;20.05;;;9.63;;
37051;SDS011;22964;52.272;13.356;2023-02-14T02:37:41;20.67;;;8.93;;
37051;SDS011;22964;52.272;13.356;2023-02-14T02:45:27;21.02;;;9.65;;
37051;SDS011;22964;52.272;13.356;2023-02-14T02:48:13;21.23;;;9.27;;
37051;SDS011;22964;52.272;13.356;2023-02-14T02:50:48;23.88;;;10.18;;
37051;SDS011;22964;52.272;13.356;2023-02-14T02:59:00;21.48;;;8.88;;
37051;SDS011;22964;52.272;13.356;2023-02-14T03:04:20;19.98;;;8.93;;
37051;SDS011;22964;52.272;13.356;2023-02-14T03:07:05;24.92;;;10.32;;
37051;SDS011;22964;52.272;13.356;2023-02-14T03:09:51;19.85;;;8.73;;
37051;SDS011;22964;52.272;13.356;2023-02-14T03:20:22;20.15;;;8.88;;
37051;SDS011;22964;52.272;13.356;2023-02-14T03:23:08;19.05;;;8.93;;
37051;SDS011;22964;52.272;13.356;2023-02-14T03:31:23;22.10;;;9.07;;
37051;SDS011;22964;52.272;13.356;2023-02-14T03:33:56;20.73;;;9.30;;
37051;SDS011;22964;52.272;13.356;2023-02-14T03:36:40;20.05;;;8.95;;
37051;SDS011;22964;52.272;13.356;2023-02-14T03:39:27;21.48;;;10.25;;
37051;SDS011;22964;52.272;13.356;2023-02-14T03:42:34;23.60;;;9.57;;
37051;SDS011;22964;52.272;13.356;2023-02-14T03:44:55;21.83;;;9.82;;
37051;SDS011;22964;52.272;13.356;2023-02-14T03:47:23;22.90;;;10.43;;
37051;SDS011;22964;52.272;13.356;2023-02-14T03:49:56;24.63;;;9.73;;
37051;SDS011;22964;52.272;13.356;2023-02-14T03:54:54;19.50;;;8.50;;
37051;SDS011;22964;52.272;13.356;2023-02-14T03:57:29;21.52;;;9.27;;
37051;SDS011;22964;52.272;13.356;2023-02-14T04:00:04;18.60;;;8.63;;
37051;SDS011;22964;52.272;13.356;2023-02-14T04:02:41;19.77;;;9.40;;
37051;SDS011;22964;52.272;13.356;2023-02-14T04:05:20;22.75;;;9.70;;
37051;SDS011;22964;52.272;13.356;2023-02-14T04:07:52;18.98;;;8.80;;
37051;SDS011;22964;52.272;13.356;2023-02-14T04:10:20;21.45;;;9.90;;
37051;SDS011;22964;52.272;13.356;2023-02-14T04:12:47;21.15;;;9.68;;
37051;SDS011;22964;52.272;13.356;2023-02-14T04:15:13;20.02;;;9.60;;
37051;SDS011;22964;52.272;13.356;2023-02-14T04:17:39;19.85;;;9.45;;
37051;SDS011;22964;52.272;13.356;2023-02-14T04:20:24;19.35;;;9.07;;
37051;SDS011;22964;52.272;13.356;2023-02-14T04:22:51;20.55;;;8.27;;
37051;SDS011;22964;52.272;13.356;2023-02-14T04:25:18;19.90;;;9.48;;
37051;SDS011;22964;52.272;13.356;2023-02-14T04:27:45;23.17;;;10.32;;
37051;SDS011;22964;52.272;13.356;2023-02-14T04:30:11;23.73;;;9.90;;
37051;SDS011;22964;52.272;13.356;2023-02-14T04:32:39;20.83;;;9.45;;
37051;SDS011;22964;52.272;13.356;2023-02-14T04:35:05;24.15;;;10.40;;
37051;SDS011;22964;52.272;13.356;2023-02-14T04:37:31;24.33;;;9.90;;
37051;SDS011;22964;52.272;13.356;2023-02-14T04:39:57;24.75;;;10.43;;
37051;SDS011;22964;52.272;13.356;2023-02-14T04:42:23;22.88;;;10.70;;
37051;SDS011;22964;52.272;13.356;2023-02-14T04:44:49;21.70;;;9.98;;
37051;SDS011;22964;52.272;13.356;2023-02-14T04:47:15;23.23;;;10.52;;
37051;SDS011;22964;52.272;13.356;2023-02-14T04:49:40;22.13;;;10.20;;
37051;SDS011;22964;52.272;13.356;2023-02-14T04:52:06;25.15;;;10.63;;
37051;SDS011;22964;52.272;13.356;2023-02-14T04:54:32;23.20;;;10.18;;
37051;SDS011;22964;52.272;13.356;2023-02-14T04:56:59;25.42;;;10.27;;
37051;SDS011;22964;52.272;13.356;2023-02-14T04:59:25;22.95;;;10.40;;
37051;SDS011;22964;52.272;13.356;2023-02-14T05:01:51;23.85;;;10.40;;
37051;SDS011;22964;52.272;13.356;2023-02-14T05:04:17;25.13;;;10.13;;
37051;SDS011;22964;52.272;13.356;2023-02-14T05:06:43;24.35;;;10.15;;
37051;SDS011;22964;52.272;13.356;2023-02-14T05:09:08;25.08;;;10.25;;
37051;SDS011;22964;52.272;13.356;2023-02-14T05:11:34;22.35;;;9.85;;
37051;SDS011;22964;52.272;13.356;2023-02-14T05:14:00;21.88;;;10.02;;
37051;SDS011;22964;52.272;13.356;2023-02-14T05:16:25;18.45;;;8.80;;
37051;SDS011;22964;52.272;13.356;2023-02-14T05:18:51;24.35;;;10.40;;
37051;SDS011;22964;52.272;13.356;2023-02-14T05:21:17;22.98;;;9.93;;
37051;SDS011;22964;52.272;13.356;2023-02-14T05:23:43;20.58;;;9.52;;
37051;SDS011;22964;52.272;13.356;2023-02-14T05:26:09;25.67;;;10.18;;
37051;SDS011;22964;52.272;13.356;2023-02-14T05:28:35;21.42;;;9.40;;
37051;SDS011;22964;52.272;13.356;2023-02-14T05:31:01;20.42;;;9.82;;
37051;SDS011;22964;52.272;13.356;2023-02-14T05:33:27;21.10;;;10.25;;
37051;SDS011;22964;52.272;13.356;2023-02-14T05:35:52;21.33;;;9.85;;
37051;SDS011;22964;52.272;13.356;2023-02-14T05:38:18;23.42;;;9.57;;
37051;SDS011;22964;52.272;13.356;2023-02-14T05:40:44;23.35;;;10.52;;
37051;SDS011;22964;52.272;13.356;2023-02-14T05:43:10;26.33;;;9.98;;
37051;SDS011;22964;52.272;13.356;2023-02-14T05:45:36;23.33;;;9.65;;
37051;SDS011;22964;52.272;13.356;2023-02-14T05:48:01;22.17;;;10.15;;
37051;SDS011;22964;52.272;13.356;2023-02-14T05:50:27;19.85;;;9.27;;
37051;SDS011;22964;52.272;13.356;2023-02-14T05:52:54;27.50;;;10.90;;
37051;SDS011;22964;52.272;13.356;2023-02-14T05:55:20;25.80;;;11.05;;
37051;SDS011;22964;52.272;13.356;2023-02-14T05:57:46;22.67;;;10.30;;
37051;SDS011;22964;52.272;13.356;2023-02-14T06:00:12;23.85;;;11.07;;
37051;SDS011;22964;52.272;13.356;2023-02-14T06:02:39;26.42;;;10.70;;
37051;SDS011;22964;52.272;13.356;2023-02-14T06:05:06;24.42;;;9.98;;
37051;SDS011;22964;52.272;13.356;2023-02-14T06:07:32;22.65;;;10.18;;
37051;SDS011;22964;52.272;13.356;2023-02-14T06:09:57;24.75;;;10.15;;
37051;SDS011;22964;52.272;13.356;2023-02-14T06:12:23;22.52;;;9.82;;
37051;SDS011;22964;52.272;13.356;2023-02-14T06:14:49;22.88;;;9.23;;
37051;SDS011;22964;52.272;13.356;2023-02-14T06:17:15;21.83;;;9.73;;
37051;SDS011;22964;52.272;13.356;2023-02-14T06:19:41;23.25;;;10.63;;
37051;SDS011;22964;52.272;13.356;2023-02-14T06:22:07;18.83;;;8.82;;
37051;SDS011;22964;52.272;13.356;2023-02-14T06:24:33;23.00;;;10.35;;
37051;SDS011;22964;52.272;13.356;2023-02-14T06:26:59;21.83;;;10.13;;
37051;SDS011;22964;52.272;13.356;2023-02-14T06:29:25;24.63;;;10.75;;
37051;SDS011;22964;52.272;13.356;2023-02-14T06:31:51;22.58;;;9.80;;
37051;SDS011;22964;52.272;13.356;2023-02-14T06:34:16;22.33;;;9.40;;
37051;SDS011;22964;52.272;13.356;2023-02-14T06:36:42;20.42;;;9.63;;
37051;SDS011;22964;52.272;13.356;2023-02-14T06:39:08;22.27;;;9.68;;
37051;SDS011;22964;52.272;13.356;2023-02-14T06:41:34;21.90;;;9.57;;
37051;SDS011;22964;52.272;13.356;2023-02-14T06:44:00;22.45;;;9.88;;
37051;SDS011;22964;52.272;13.356;2023-02-14T06:46:25;19.20;;;9.40;;
37051;SDS011;22964;52.272;13.356;2023-02-14T06:48:51;22.70;;;9.65;;
37051;SDS011;22964;52.272;13.356;2023-02-14T06:51:17;21.85;;;9.77;;
37051;SDS011;22964;52.272;13.356;2023-02-14T06:53:42;22.55;;;10.32;;
37051;SDS011;22964;52.272;13.356;2023-02-14T06:56:08;24.45;;;10.02;;
37051;SDS011;22964;52.272;13.356;2023-02-14T06:58:34;20.77;;;9.65;;
37051;SDS011;22964;52.272;13.356;2023-02-14T07:01:00;19.17;;;9.18;;
37051;SDS011;22964;52.272;13.356;2023-02-14T07:03:26;24.80;;;9.85;;
37051;SDS011;22964;52.272;13.356;2023-02-14T07:05:52;21.25;;;9.38;;
37051;SDS011;22964;52.272;13.356;2023-02-14T07:08:17;21.65;;;10.25;;
37051;SDS011;22964;52.272;13.356;2023-02-14T07:10:44;22.20;;;10.10;;
37051;SDS011;22964;52.272;13.356;2023-02-14T07:13:10;20.17;;;9.75;;
37051;SDS011;22964;52.272;13.356;2023-02-14T07:15:36;22.70;;;10.45;;
37051;SDS011;22964;52.272;13.356;2023-02-14T07:18:02;21.42;;;9.82;;
37051;SDS011;22964;52.272;13.356;2023-02-14T07:20:28;21.50;;;9.70;;
37051;SDS011;22964;52.272;13.356;2023-02-14T07:22:53;24.55;;;9.77;;
37051;SDS011;22964;52.272;13.356;2023-02-14T07:25:19;19.75;;;9.15;;
37051;SDS011;22964;52.272;13.356;2023-02-14T07:27:45;20.38;;;9.23;;
37051;SDS011;22964;52.272;13.356;2023-02-14T07:30:11;19.48;;;9.07;;
37051;SDS011;22964;52.272;13.356;2023-02-14T07:32:37;20.60;;;9.85;;
37051;SDS011;22964;52.272;13.356;2023-02-14T07:35:04;23.38;;;10.52;;
37051;SDS011;22964;52.272;13.356;2023-02-14T07:37:34;21.95;;;8.95;;
37051;SDS011;22964;52.272;13.356;2023-02-14T07:39:59;22.35;;;9.75;;
37051;SDS011;22964;52.272;13.356;2023-02-14T07:42:26;21.08;;;9.63;;
37051;SDS011;22964;52.272;13.356;2023-02-14T07:44:52;19.80;;;8.80;;
37051;SDS011;22964;52.272;13.356;2023-02-14T07:47:18;21.98;;;9.82;;
37051;SDS011;22964;52.272;13.356;2023-02-14T07:49:44;23.45;;;10.55;;
37051;SDS011;22964;52.272;13.356;2023-02-14T07:52:09;22.35;;;9.75;;
37051;SDS011;22964;52.272;13.356;2023-02-14T07:54:35;19.67;;;9.50;;
37051;SDS011;22964;52.272;13.356;2023-02-14T07:57:02;24.10;;;9.68;;
37051;SDS011;22964;52.272;13.356;2023-02-14T07:59:29;20.95;;;9.95;;
37051;SDS011;22964;52.272;13.356;2023-02-14T08:01:55;19.60;;;9.25;;
37051;SDS011;22964;52.272;13.356;2023-02-14T08:04:21;20.40;;;9.40;;
37051;SDS011;22964;52.272;13.356;2023-02-14T08:06:50;21.42;;;9.73;;
37051;SDS011;22964;52.272;13.356;2023-02-14T08:09:17;21.17;;;9.63;;
37051;SDS011;22964;52.272;13.356;2023-02-14T08:11:52;21.73;;;10.18;;
37051;SDS011;22964;52.272;13.356;2023-02-14T08:14:45;19.98;;;9.38;;
37051;SDS011;22964;52.272;13.356;2023-02-14T08:17:11;21.63;;;10.07;;
37051;SDS011;22964;52.272;13.356;2023-02-14T08:19:38;20.50;;;9.57;;
37051;SDS011;22964;52.272;13.356;2023-02-14T08:22:04;20.00;;;9.98;;
37051;SDS011;22964;52.272;13.356;2023-02-14T08:24:30;19.88;;;9.65;;
37051;SDS011;22964;52.272;13.356;2023-02-14T08:26:56;20.10;;;9.95;;
37051;SDS011;22964;52.272;13.356;2023-02-14T08:29:22;22.70;;;9.77;;
37051;SDS011;22964;52.272;13.356;2023-02-14T08:31:47;20.48;;;9.50;;
37051;SDS011;22964;52.272;13.356;2023-02-14T08:34:13;24.50;;;9.75;;
37051;SDS011;22964;52.272;13.356;2023-02-14T08:36:41;22.90;;;9.98;;
37051;SDS011;22964;52.272;13.356;2023-02-14T08:39:07;19.48;;;9.52;;
37051;SDS011;22964;52.272;13.356;2023-02-14T08:41:34;18.02;;;9.90;;
37051;SDS011;22964;52.272;13.356;2023-02-14T08:44:00;21.90;;;9.60;;
37051;SDS011;22964;52.272;13.356;2023-02-14T08:46:26;22.35;;;10.02;;
37051;SDS011;22964;52.272;13.356;2023-02-14T08:48:52;21.58;;;8.90;;
37051;SDS011;22964;52.272;13.356;2023-02-14T08:51:19;20.02;;;9.57;;
37051;SDS011;22964;52.272;13.356;2023-02-14T08:53:48;19.92;;;9.55;;
37051;SDS011;22964;52.272;13.356;2023-02-14T08:56:14;21.92;;;10.35;;
37051;SDS011;22964;52.272;13.356;2023-02-14T08:58:40;19.13;;;9.75;;
37051;SDS011;22964;52.272;13.356;2023-02-14T09:01:07;21.33;;;10.18;;
37051;SDS011;22964;52.272;13.356;2023-02-14T09:03:33;21.48;;;10.05;;
37051;SDS011;22964;52.272;13.356;2023-02-14T09:06:03;20.42;;;9.60;;
37051;SDS011;22964;52.272;13.356;2023-02-14T09:08:29;18.73;;;9.63;;
37051;SDS011;22964;52.272;13.356;2023-02-14T09:10:55;19.00;;;9.77;;
37051;SDS011;22964;52.272;13.356;2023-02-14T09:13:22;19.20;;;9.75;;
37051;SDS011;22964;52.272;13.356;2023-02-14T09:15:47;19.52;;;10.02;;
37051;SDS011;22964;52.272;13.356;2023-02-14T09:18:13;20.13;;;10.00;;
37051;SDS011;22964;52.272;13.356;2023-02-14T09:20:40;22.27;;;11.20;;
37051;SDS011;22964;52.272;13.356;2023-02-14T09:23:08;23.55;;;10.55;;
37051;SDS011;22964;52.272;13.356;2023-02-14T09:25:34;20.05;;;10.25;;
37051;SDS011;22964;52.272;13.356;2023-02-14T09:28:00;23.08;;;11.40;;
37051;SDS011;22964;52.272;13.356;2023-02-14T09:30:25;21.40;;;11.10;;
37051;SDS011;22964;52.272;13.356;2023-02-14T09:32:52;23.95;;;11.18;;
37051;SDS011;22964;52.272;13.356;2023-02-14T09:35:17;21.73;;;10.18;;
37051;SDS011;22964;52.272;13.356;2023-02-14T09:37:49;21.90;;;10.43;;
37051;SDS011;22964;52.272;13.356;2023-02-14T09:40:33;25.00;;;10.55;;
37051;SDS011;22964;52.272;13.356;2023-02-14T09:45:39;24.63;;;11.27;;
37051;SDS011;22964;52.272;13.356;2023-02-14T09:48:07;24.40;;;11.75;;
37051;SDS011;22964;52.272;13.356;2023-02-14T09:50:42;24.33;;;11.15;;
37051;SDS011;22964;52.272;13.356;2023-02-14T09:53:26;21.48;;;10.93;;
37051;SDS011;22964;52.272;13.356;2023-02-14T09:58:39;22.45;;;10.43;;
37051;SDS011;22964;52.272;13.356;2023-02-14T10:01:31;20.70;;;10.35;;
37051;SDS011;22964;52.272;13.356;2023-02-14T10:12:38;21.42;;;10.38;;
37051;SDS011;22964;52.272;13.356;2023-02-14T10:15:14;21.42;;;11.52;;
37051;SDS011;22964;52.272;13.356;2023-02-14T10:17:54;24.17;;;10.68;;
37051;SDS011;22964;52.272;13.356;2023-02-14T10:23:21;21.58;;;10.60;;
37051;SDS011;22964;52.272;13.356;2023-02-14T10:26:05;23.98;;;10.07;;
37051;SDS011;22964;52.272;13.356;2023-02-14T10:28:48;23.73;;;10.43;;
37051;SDS011;22964;52.272;13.356;2023-02-14T10:33:46;25.33;;;10.70;;
37051;SDS011;22964;52.272;13.356;2023-02-14T10:39:27;24.20;;;10.45;;
37051;SDS011;22964;52.272;13.356;2023-02-14T10:42:03;19.10;;;9.98;;
37051;SDS011;22964;52.272;13.356;2023-02-14T10:50:01;19.65;;;9.60;;
37051;SDS011;22964;52.272;13.356;2023-02-14T10:52:39;18.48;;;10.05;;
37051;SDS011;22964;52.272;13.356;2023-02-14T10:55:24;22.83;;;10.48;;
37051;SDS011;22964;52.272;13.356;2023-02-14T10:58:04;19.05;;;9.68;;
37051;SDS011;22964;52.272;13.356;2023-02-14T11:00:37;20.83;;;9.48;;
37051;SDS011;22964;52.272;13.356;2023-02-14T11:03:16;22.30;;;10.48;;
37051;SDS011;22964;52.272;13.356;2023-02-14T11:05:46;20.13;;;10.15;;
37051;SDS011;22964;52.272;13.356;2023-02-14T11:08:14;19.05;;;10.35;;
37051;SDS011;22964;52.272;13.356;2023-02-14T11:13:34;20.42;;;9.82;;
37051;SDS011;22964;52.272;13.356;2023-02-14T11:16:04;19.52;;;10.48;;
37051;SDS011;22964;52.272;13.356;2023-02-14T11:18:37;20.90;;;9.52;;
37051;SDS011;22964;52.272;13.356;2023-02-14T11:21:24;21.27;;;9.85;;
37051;SDS011;22964;52.272;13.356;2023-02-14T11:24:00;17.48;;;9.05;;
37051;SDS011;22964;52.272;13.356;2023-02-14T11:26:40;19.23;;;9.93;;
37051;SDS011;22964;52.272;13.356;2023-02-14T11:29:11;19.33;;;9.40;;
37051;SDS011;22964;52.272;13.356;2023-02-14T11:31:39;16.35;;;9.27;;
37051;SDS011;22964;52.272;13.356;2023-02-14T11:34:52;20.50;;;9.88;;
37051;SDS011;22964;52.272;13.356;2023-02-14T11:37:01;18.02;;;9.43;;
37051;SDS011;22964;52.272;13.356;2023-02-14T11:39:29;20.38;;;9.38;;
37051;SDS011;22964;52.272;13.356;2023-02-14T11:42:00;18.33;;;9.80;;
37051;SDS011;22964;52.272;13.356;2023-02-14T11:44:31;18.23;;;9.43;;
37051;SDS011;22964;52.272;13.356;2023-02-14T11:47:23;17.80;;;9.30;;
37051;SDS011;22964;52.272;13.356;2023-02-14T11:49:53;16.85;;;8.85;;
37051;SDS011;22964;52.272;13.356;2023-02-14T11:52:23;18.67;;;8.77;;
37051;SDS011;22964;52.272;13.356;2023-02-14T11:54:53;17.52;;;8.80;;
37051;SDS011;22964;52.272;13.356;2023-02-14T11:59:55;17.40;;;9.23;;
37051;SDS011;22964;52.272;13.356;2023-02-14T12:04:59;17.48;;;9.15;;
37051;SDS011;22964;52.272;13.356;2023-02-14T12:07:46;18.58;;;9.52;;
37051;SDS011;22964;52.272;13.356;2023-02-14T12:12:51;16.27;;;9.40;;
37051;SDS011;22964;52.272;13.356;2023-02-14T12:15:36;18.50;;;9.45;;
37051;SDS011;22964;52.272;13.356;2023-02-14T12:20:41;20.27;;;10.38;;
37051;SDS011;22964;52.272;13.356;2023-02-14T12:23:28;20.85;;;10.45;;
37051;SDS011;22964;52.272;13.356;2023-02-14T12:26:13;20.08;;;11.05;;
37051;SDS011;22964;52.272;13.356;2023-02-14T12:31:33;21.83;;;9.75;;
37051;SDS011;22964;52.272;13.356;2023-02-14T12:34:00;18.48;;;9.98;;
37051;SDS011;22964;52.272;13.356;2023-02-14T12:46:52;20.83;;;11.00;;
37051;SDS011;22964;52.272;13.356;2023-02-14T12:49:47;17.73;;;10.13;;
37051;SDS011;22964;52.272;13.356;2023-02-14T13:09:04;22.45;;;10.07;;
37051;SDS011;22964;52.272;13.356;2023-02-14T13:14:25;18.33;;;9.73;;
37051;SDS011;22964;52.272;13.356;2023-02-14T13:17:10;16.08;;;9.10;;
37051;SDS011;22964;52.272;13.356;2023-02-14T13:22:28;17.38;;;9.43;;
37051;SDS011;22964;52.272;13.356;2023-02-14T13:24:59;15.30;;;8.43;;
37051;SDS011;22964;52.272;13.356;2023-02-14T13:27:30;18.98;;;10.10;;
37051;SDS011;22964;52.272;13.356;2023-02-14T13:29:59;19.88;;;10.20;;
37051;SDS011;22964;52.272;13.356;2023-02-14T13:32:50;17.60;;;9.57;;
37051;SDS011;22964;52.272;13.356;2023-02-14T13:35:20;19.70;;;10.20;;
37051;SDS011;22964;52.272;13.356;2023-02-14T13:37:52;18.45;;;10.20;;
37051;SDS011;22964;52.272;13.356;2023-02-14T13:40:22;16.45;;;9.32;;
37051;SDS011;22964;52.272;13.356;2023-02-14T13:42:52;17.23;;;9.65;;
37051;SDS011;22964;52.272;13.356;2023-02-14T13:48:09;19.17;;;9.88;;
37051;SDS011;22964;52.272;13.356;2023-02-14T13:50:53;19.95;;;10.10;;
37051;SDS011;22964;52.272;13.356;2023-02-14T13:55:59;18.33;;;9.73;;
37051;SDS011;22964;52.272;13.356;2023-02-14T14:01:36;16.83;;;9.48;;
37051;SDS011;22964;52.272;13.356;2023-02-14T14:15:10;26.38;;;10.02;;
37051;SDS011;22964;52.272;13.356;2023-02-14T14:17:38;17.52;;;9.57;;
37051;SDS011;22964;52.272;13.356;2023-02-14T14:22:45;31.17;;;10.43;;
37051;SDS011;22964;52.272;13.356;2023-02-14T14:28:21;21.52;;;9.93;;
37051;SDS011;22964;52.272;13.356;2023-02-14T14:30:50;21.33;;;10.30;;
37051;SDS011;22964;52.272;13.356;2023-02-14T14:33:23;21.60;;;10.45;;
37051;SDS011;22964;52.272;13.356;2023-02-14T14:38:22;26.48;;;11.65;;
37051;SDS011;22964;52.272;13.356;2023-02-14T14:40:49;18.98;;;10.65;;
37051;SDS011;22964;52.272;13.356;2023-02-14T14:45:46;18.13;;;10.32;;
37051;SDS011;22964;52.272;13.356;2023-02-14T14:48:15;19.88;;;10.48;;
37051;SDS011;22964;52.272;13.356;2023-02-14T14:50:50;17.73;;;10.00;;
37051;SDS011;22964;52.272;13.356;2023-02-14T14:53:26;21.05;;;10.90;;
37051;SDS011;22964;52.272;13.356;2023-02-14T14:56:10;20.45;;;11.20;;
37051;SDS011;22964;52.272;13.356;2023-02-14T14:58:44;19.75;;;10.60;;
37051;SDS011;22964;52.272;13.356;2023-02-14T15:01:10;19.92;;;11.05;;
37051;SDS011;22964;52.272;13.356;2023-02-14T15:03:40;21.23;;;10.82;;
37051;SDS011;22964;52.272;13.356;2023-02-14T15:06:07;20.30;;;10.88;;
37051;SDS011;22964;52.272;13.356;2023-02-14T15:08:40;19.90;;;10.98;;
37051;SDS011;22964;52.272;13.356;2023-02-14T15:14:09;17.67;;;10.02;;
37051;SDS011;22964;52.272;13.356;2023-02-14T15:16:47;17.83;;;9.70;;
37051;SDS011;22964;52.272;13.356;2023-02-14T15:22:05;18.73;;;10.15;;
37051;SDS011;22964;52.272;13.356;2023-02-14T15:24:41;18.42;;;9.65;;
37051;SDS011;22964;52.272;13.356;2023-02-14T15:27:10;19.02;;;9.75;;
37051;SDS011;22964;52.272;13.356;2023-02-14T15:30:06;20.05;;;10.15;;
37051;SDS011;22964;52.272;13.356;2023-02-14T15:32:31;19.23;;;9.88;;
37051;SDS011;22964;52.272;13.356;2023-02-14T15:35:00;20.80;;;10.27;;
37051;SDS011;22964;52.272;13.356;2023-02-14T15:37:27;21.13;;;11.15;;
37051;SDS011;22964;52.272;13.356;2023-02-14T15:39:54;20.23;;;10.75;;
37051;SDS011;22964;52.272;13.356;2023-02-14T15:42:22;23.48;;;11.02;;
37051;SDS011;22964;52.272;13.356;2023-02-14T15:45:16;22.33;;;11.27;;
37051;SDS011;22964;52.272;13.356;2023-02-14T15:47:51;20.35;;;11.35;;
37051;SDS011;22964;52.272;13.356;2023-02-14T15:50:40;24.07;;;11.33;;
37051;SDS011;22964;52.272;13.356;2023-02-14T15:56:00;21.48;;;10.75;;
37051;SDS011;22964;52.272;13.356;2023-02-14T15:58:28;20.10;;;11.00;;
37051;SDS011;22964;52.272;13.356;2023-02-14T16:00:56;19.65;;;10.90;;
37051;SDS011;22964;52.272;13.356;2023-02-14T16:03:27;20.88;;;10.68;;
37051;SDS011;22964;52.272;13.356;2023-02-14T16:05:57;22.35;;;11.68;;
37051;SDS011;22964;52.272;13.356;2023-02-14T16:08:34;19.83;;;10.98;;
37051;SDS011;22964;52.272;13.356;2023-02-14T16:13:39;21.45;;;10.80;;
37051;SDS011;22964;52.272;13.356;2023-02-14T16:16:12;23.35;;;10.68;;
37051;SDS011;22964;52.272;13.356;2023-02-14T16:18:46;19.80;;;10.38;;
37051;SDS011;22964;52.272;13.356;2023-02-14T16:26:36;22.35;;;11.75;;
37051;SDS011;22964;52.272;13.356;2023-02-14T16:29:03;19.25;;;10.25;;
37051;SDS011;22964;52.272;13.356;2023-02-14T16:31:33;18.55;;;9.90;;
37051;SDS011;22964;52.272;13.356;2023-02-14T16:34:00;21.10;;;10.60;;
37051;SDS011;22964;52.272;13.356;2023-02-14T16:36:29;21.33;;;9.90;;
37051;SDS011;22964;52.272;13.356;2023-02-14T16:38:57;19.80;;;9.88;;
37051;SDS011;22964;52.272;13.356;2023-02-14T16:41:26;19.25;;;9.73;;
37051;SDS011;22964;52.272;13.356;2023-02-14T16:43:54;19.70;;;10.75;;
37051;SDS011;22964;52.272;13.356;2023-02-14T16:46:21;22.13;;;11.18;;
37051;SDS011;22964;52.272;13.356;2023-02-14T16:48:50;20.58;;;10.35;;
37051;SDS011;22964;52.272;13.356;2023-02-14T16:51:17;19.85;;;10.32;;
37051;SDS011;22964;52.272;13.356;2023-02-14T16:53:44;19.63;;;10.30;;
37051;SDS011;22964;52.272;13.356;2023-02-14T16:56:14;18.13;;;10.15;;
37051;SDS011;22964;52.272;13.356;2023-02-14T16:58:45;18.35;;;10.07;;
37051;SDS011;22964;52.272;13.356;2023-02-14T17:01:11;19.55;;;10.45;;
37051;SDS011;22964;52.272;13.356;2023-02-14T17:03:37;18.90;;;10.40;;
37051;SDS011;22964;52.272;13.356;2023-02-14T17:06:04;18.83;;;10.48;;
37051;SDS011;22964;52.272;13.356;2023-02-14T17:08:32;18.02;;;9.55;;
37051;SDS011;22964;52.272;13.356;2023-02-14T17:10:58;21.25;;;10.23;;
37051;SDS011;22964;52.272;13.356;2023-02-14T17:13:26;18.33;;;9.85;;
37051;SDS011;22964;52.272;13.356;2023-02-14T17:15:55;25.13;;;10.45;;
37051;SDS011;22964;52.272;13.356;2023-02-14T17:18:21;17.80;;;10.13;;
37051;SDS011;22964;52.272;13.356;2023-02-14T17:20:48;22.25;;;10.07;;
37051;SDS011;22964;52.272;13.356;2023-02-14T17:23:14;19.85;;;10.20;;
37051;SDS011;22964;52.272;13.356;2023-02-14T17:25:40;19.83;;;10.18;;